Taunsa Weather



Taunsa's Current Weather

Temprature 42.59o broken clouds

broken clouds

Rain: 0 %

Min Temprature42.59o
Max Temprature42.59o
Humidity20
Wind Speed0.9 m/h
Sun Rise05:29:58
Sun Set19:17:31
Current Time: 24-Jul-2021 16:09:52
Lat/Lon: 30.7048, 70.6505




Taunsa's Geo Location



Taunsa's Weather Forecast

Time Overall Temp Min Temp Max Temp Humidity Wind Speed Rain
24-Jul-2021 (Sat)
17:00:00 broken clouds 42.650 42.650 42.650 20 1.11 m/h 0 %
20:00:00 broken clouds 42.190 41.260 42.190 21 2.65 m/h 0 %
23:00:00 scattered clouds 40.130 38.870 40.130 26 3.94 m/h 0 %
25-Jul-2021 (Sun)
02:00:00 clear sky 36.930 36.930 36.930 36 4.78 m/h 0 %
05:00:00 clear sky 35.670 35.670 35.670 41 4.4 m/h 0 %
08:00:00 clear sky 38.490 38.490 38.490 32 4.25 m/h 0 %
11:00:00 clear sky 42.840 42.840 42.840 23 4.46 m/h 0 %
14:00:00 clear sky 44.870 44.870 44.870 18 2.56 m/h 0 %
17:00:00 clear sky 45.550 45.550 45.550 17 2.65 m/h 0 %
20:00:00 clear sky 43.320 43.320 43.320 21 3.89 m/h 0 %
23:00:00 clear sky 40.940 40.940 40.940 26 5.69 m/h 0 %
26-Jul-2021 (Mon)
02:00:00 few clouds 38.110 38.110 38.110 35 7.29 m/h 0 %
05:00:00 few clouds 37.260 37.260 37.260 37 5.81 m/h 0 %
08:00:00 scattered clouds 39.400 39.400 39.400 33 5.34 m/h 0 %
11:00:00 few clouds 44.260 44.260 44.260 22 3.06 m/h 0 %
14:00:00 clear sky 46.520 46.520 46.520 18 4.25 m/h 0 %
17:00:00 scattered clouds 46.420 46.420 46.420 18 6.19 m/h 0 %
20:00:00 broken clouds 42.230 42.230 42.230 27 8.75 m/h 0 %
23:00:00 broken clouds 39.250 39.250 39.250 34 10.54 m/h 0 %
27-Jul-2021 (Tue)
02:00:00 broken clouds 37.450 37.450 37.450 39 9.47 m/h 0 %
05:00:00 broken clouds 34.330 34.330 34.330 50 9.72 m/h 0 %
08:00:00 overcast clouds 35.350 35.350 35.350 48 7.7 m/h 0 %
11:00:00 overcast clouds 40.130 40.130 40.130 36 3.98 m/h 0 %
14:00:00 overcast clouds 42.630 42.630 42.630 30 5.54 m/h 0 %
17:00:00 overcast clouds 42.760 42.760 42.760 29 7.2 m/h 0 %
20:00:00 broken clouds 38.590 38.590 38.590 38 10.26 m/h 0 %
23:00:00 broken clouds 35.740 35.740 35.740 45 9.61 m/h 0 %
28-Jul-2021 (Wed)
02:00:00 light rain 33.370 33.370 33.370 54 9.05 m/h 38 %
05:00:00 light rain 32.090 32.090 32.090 59 7.89 m/h 87 %
08:00:00 light rain 32.810 32.810 32.810 57 6.61 m/h 21 %
11:00:00 light rain 36.230 36.230 36.230 47 4.19 m/h 242 %
14:00:00 broken clouds 39.530 39.530 39.530 37 4.22 m/h 0 %
17:00:00 light rain 39.500 39.500 39.500 36 3.19 m/h 102 %
20:00:00 light rain 38.930 38.930 38.930 36 6.5 m/h 16 %
23:00:00 light rain 33.900 33.900 33.900 52 4.93 m/h 289 %
29-Jul-2021 (Thu)
02:00:00 light rain 34.070 34.070 34.070 52 3.49 m/h 290 %
05:00:00 overcast clouds 33.280 33.280 33.280 55 1.77 m/h 0 %
08:00:00 overcast clouds 34.130 34.130 34.130 52 2.18 m/h 0 %
11:00:00 overcast clouds 36.550 36.550 36.550 45 1.62 m/h 0 %
14:00:00 overcast clouds 38.390 38.390 38.390 39 1.62 m/h 0 %

Famous Cities (60)